CheckWX is a tool to help pilots better visualize weather data.  It is not intended as a substitute for an official pre-flight weather briefing.

19:13:56 UTC

EDHL METAR
Lübeck Blankensee Airport
Lübeck, Germany
Current

24 mins ago

EDHL 201850Z 27006KT 240V310 9999 -SHRA BKN025CB 15/14 Q1023 RESHRA
Observed
Aug-20 @ 18:50 UTC
Wind
  • 270° at 6 KTS
Visibility
10,000+ meters
Flight Rules
MVFR
Conditions
Light Rain
Cloud Levels
  • Broken at 2,500' AGL
Temperature
15°C / 59°F
Dewpoint
14°C / 57°F
Humidity
94%
Altimeter
30.21" Hg
Pressure
1022.92 hPa
Previous

54 mins ago

EDHL 201820Z 20010KT 170V240 4000 SHRA BKN020CB 16/14 Q1023
Observed
Aug-20 @ 18:20 UTC
Wind
  • 200° at 10 KTS
Visibility
4,000 meters
Flight Rules
IFR
Conditions
Rain
Cloud Levels
  • Broken at 2,000' AGL
Temperature
16°C / 61°F
Dewpoint
14°C / 57°F
Humidity
88%
Altimeter
30.21" Hg
Pressure
1022.92 hPa
Previous

1 hour ago

EDHL 201750Z VRB02KT 9999 VCSH SCT040CB 20/10 Q1021
Observed
Aug-20 @ 17:50 UTC
Wind
  • Variable at 2 KTS
Visibility
10,000+ meters
Flight Rules
VFR
Cloud Levels
  • Scattered at 4,000' AGL
Temperature
20°C / 68°F
Dewpoint
10°C / 50°F
Humidity
53%
Altimeter
30.15" Hg
Pressure
1020.92 hPa